Time;durP1;ratioP1;P1;durP2;ratioP2;P2;SDS_P1;SDS_P2;PMS_P1;PMS_P2;Temp;Humidity;BMP_temperature;BMP_pressure;BME280_temperature;BME280_humidity;BME280_pressure;Samples;Min_cycle;Max_cycle;Signal;HPM_P1;HPM_P2
2022/08/07 00:01:37;;;;;;;;;;;;;;;23.71;76.11;153618.09;1676973;84;20164;-58
2022/08/07 00:04:05;;;;;;;;;;;;;;;23.63;76.26;153597.16;1677026;84;20186;-73
2022/08/07 00:06:32;;;;;;;;;;;;;;;23.59;76.33;153586.70;1675907;85;20345;-72
2022/08/07 00:08:59;;;;;;;;;;;;;;;23.54;76.42;153574.91;1678186;85;22178;-71
2022/08/07 00:11:26;;;;;;;;;;;;;;;23.52;76.41;153569.67;1688421;84;20216;-72
2022/08/07 00:13:54;;;;;;;;;;;;;;;23.50;76.54;153563.11;1706059;83;20193;-73
2022/08/07 00:16:20;;;;;;;;;;;;;;;23.50;76.64;153564.44;1705702;84;20205;-73
2022/08/07 00:18:47;;;;;;;;;;;;;;;23.46;76.64;153555.27;1692777;83;20217;-72
2022/08/07 00:21:14;;;;;;;;;;;;;;;23.42;76.83;153544.81;1680154;84;21134;-73
2022/08/07 00:23:41;;;;;;;;;;;;;;;23.39;76.67;153535.63;1679693;84;20144;-73
2022/08/07 00:26:08;;;;;;;;;;;;;;;23.37;76.38;153531.73;1679630;84;20196;-73
2022/08/07 00:28:35;;;;;;;;;;;;;;;23.35;76.18;153526.50;1679505;85;20187;-73
2022/08/07 00:31:04;;;;;;;;;;;;;;;23.35;76.31;153526.50;1679661;85;20439;-73
2022/08/07 00:33:32;;;;;;;;;;;;;;;23.30;76.46;153513.38;1681126;84;21136;-72
2022/08/07 00:36:00;;;;;;;;;;;;;;;23.28;76.65;153508.14;1679737;84;20163;-72
2022/08/07 00:38:26;;;;;;;;;;;;;;;23.26;76.79;153504.25;1679875;84;20420;-73
2022/08/07 00:40:53;;;;;;;;;;;;;;;23.23;76.85;153495.02;1679914;84;20130;-72
2022/08/07 00:43:20;;;;;;;;;;;;;;;23.15;76.90;153476.72;1679634;83;20196;-73
2022/08/07 00:45:47;;;;;;;;;;;;;;;23.07;77.25;153455.75;1680288;84;21149;-73
2022/08/07 00:48:14;;;;;;;;;;;;;;;22.99;77.55;153434.83;1679861;84;20203;-72
2022/08/07 00:50:41;;;;;;;;;;;;;;;22.98;77.82;153432.22;1679296;85;20165;-72
2022/08/07 00:53:08;;;;;;;;;;;;;;;22.99;77.74;153434.83;1677893;84;20183;-72
2022/08/07 00:55:35;;;;;;;;;;;;;;;23.03;77.50;153445.28;1662316;86;20185;-72
2022/08/07 00:58:02;;;;;;;;;;;;;;;23.04;77.22;153449.23;1662240;84;22144;-58
2022/08/07 01:00:29;;;;;;;;;;;;;;;23.03;77.25;153446.63;1661798;86;20217;-58
2022/08/07 01:02:56;;;;;;;;;;;;;;;23.04;77.29;153447.91;1662195;85;20165;-57
2022/08/07 01:05:23;;;;;;;;;;;;;;;23.06;77.15;153453.13;1651527;84;20797;-58
2022/08/07 01:07:50;;;;;;;;;;;;;;;23.07;77.08;153455.75;1687814;85;20206;-59
2022/08/07 01:10:17;;;;;;;;;;;;;;;23.07;76.93;153455.75;1690504;85;21287;-58
2022/08/07 01:12:44;;;;;;;;;;;;;;;23.04;76.92;153449.23;1707053;83;20102;-59
2022/08/07 01:15:11;;;;;;;;;;;;;;;23.01;77.09;153440.06;1707837;83;20232;-59
2022/08/07 01:17:39;;;;;;;;;;;;;;;23.00;77.08;153437.44;1707412;83;20153;-59
2022/08/07 01:20:10;;;;;;;;;;;;;;;22.95;77.06;153425.66;1698355;84;20193;-60
2022/08/07 01:22:37;;;;;;;;;;;;;;;22.91;77.19;153413.91;1698106;84;21850;-59
2022/08/07 01:25:05;;;;;;;;;;;;;;;22.85;77.10;153400.80;1697856;84;20510;-59
2022/08/07 01:27:31;;;;;;;;;;;;;;;22.83;77.17;153395.56;1698109;84;20182;-60
2022/08/07 01:29:59;;;;;;;;;;;;;;;22.85;77.40;153400.80;1698312;84;20477;-72
2022/08/07 01:32:26;;;;;;;;;;;;;;;22.86;77.25;153403.41;1698126;84;20141;-73
2022/08/07 01:34:55;;;;;;;;;;;;;;;22.82;77.20;153392.95;1697997;84;21204;-59
2022/08/07 01:37:22;;;;;;;;;;;;;;;22.77;77.42;153379.88;1697405;84;20173;-72
2022/08/07 01:39:51;;;;;;;;;;;;;;;22.73;77.35;153369.42;1698245;84;20198;-72
2022/08/07 01:42:19;;;;;;;;;;;;;;;22.72;77.64;153366.81;1698170;84;20912;-70
2022/08/07 01:44:46;;;;;;;;;;;;;;;22.68;78.22;153356.34;1698311;84;20220;-73
2022/08/07 01:47:13;;;;;;;;;;;;;;;22.61;78.65;153339.34;1697839;84;21184;-59
2022/08/07 01:49:40;;;;;;;;;;;;;;;22.54;78.97;153322.31;1703855;84;20485;-59
2022/08/07 01:52:07;;;;;;;;;;;;;;;22.49;79.33;153309.25;1698086;84;20190;-59
2022/08/07 01:54:36;;;;;;;;;;;;;;;22.45;79.62;153298.75;1711947;82;20176;-60
2022/08/07 01:57:13;;;;;;;;;;;;;;;22.42;79.96;153290.86;1721413;82;20188;-58
2022/08/07 01:59:49;;;;;;;;;;;;;;;22.38;80.24;153280.41;1721272;83;21143;-59
2022/08/07 02:02:24;;;;;;;;;;;;;;;22.33;80.52;153268.67;1720980;83;20208;-58
2022/08/07 02:04:55;;;;;;;;;;;;;;;22.31;80.88;153263.39;1725117;82;20142;-58
2022/08/07 02:07:23;;;;;;;;;;;;;;;22.26;81.00;153251.66;1718508;82;20501;-58
2022/08/07 02:09:51;;;;;;;;;;;;;;;22.22;81.23;153241.20;1718731;83;20190;-59
2022/08/07 02:12:19;;;;;;;;;;;;;;;22.17;81.41;153229.41;1718719;83;21140;-58
2022/08/07 02:14:50;;;;;;;;;;;;;;;22.14;81.59;153220.25;1718720;83;20132;-58
2022/08/07 02:17:19;;;;;;;;;;;;;;;22.11;81.75;153212.41;1718908;82;20160;-70
2022/08/07 02:19:47;;;;;;;;;;;;;;;22.11;81.90;153212.41;1746895;82;20453;-70
2022/08/07 02:22:14;;;;;;;;;;;;;;;22.11;81.93;153212.41;1749245;82;20482;-59
2022/08/07 02:24:43;;;;;;;;;;;;;;;22.10;81.98;153209.80;1748933;82;21305;-59
2022/08/07 02:27:12;;;;;;;;;;;;;;;22.04;82.21;153195.39;1748733;82;20158;-59
2022/08/07 02:29:38;;;;;;;;;;;;;;;22.00;82.45;153186.28;1741893;82;20169;-59
2022/08/07 02:32:05;;;;;;;;;;;;;;;21.95;82.74;153173.16;1748909;82;20510;-59
2022/08/07 02:34:32;;;;;;;;;;;;;;;21.92;82.97;153165.31;1748832;82;20175;-58
2022/08/07 02:37:00;;;;;;;;;;;;;;;21.91;83.20;153161.44;1748916;82;21809;-71
2022/08/07 02:39:28;;;;;;;;;;;;;;;21.90;83.26;153160.09;1748613;81;20208;-71
2022/08/07 02:41:55;;;;;;;;;;;;;;;21.88;83.41;153156.20;1749013;82;20537;-71
2022/08/07 02:44:23;;;;;;;;;;;;;;;21.89;83.48;153157.48;1748357;81;20534;-72
2022/08/07 02:46:51;;;;;;;;;;;;;;;21.91;83.61;153162.72;1749111;82;20213;-71
2022/08/07 02:49:18;;;;;;;;;;;;;;;21.94;83.47;153170.55;1748127;81;21237;-71
2022/08/07 02:51:45;;;;;;;;;;;;;;;21.94;83.42;153170.55;1748143;82;20416;-72
2022/08/07 02:54:12;;;;;;;;;;;;;;;21.96;83.54;153174.50;1744053;82;20211;-72
2022/08/07 02:56:39;;;;;;;;;;;;;;;21.96;83.57;153175.78;1737425;82;21872;-71
2022/08/07 02:59:08;;;;;;;;;;;;;;;21.96;83.54;153175.78;1738596;82;20123;-71
2022/08/07 03:01:36;;;;;;;;;;;;;;;21.95;83.41;153173.16;1738422;82;21233;-72
2022/08/07 03:04:06;;;;;;;;;;;;;;;21.96;83.49;153174.50;1738963;82;20127;-72
2022/08/07 03:06:33;;;;;;;;;;;;;;;22.01;83.44;153188.89;1721006;82;20131;-72
2022/08/07 03:09:01;;;;;;;;;;;;;;;22.01;83.28;153188.89;1718978;83;20642;-72
2022/08/07 03:11:28;;;;;;;;;;;;;;;22.00;83.29;153186.28;1718710;83;20228;-72
2022/08/07 03:13:56;;;;;;;;;;;;;;;22.03;83.27;153192.78;1719161;83;21935;-72
2022/08/07 03:16:23;;;;;;;;;;;;;;;22.08;83.27;153204.56;1718629;82;20148;-72
2022/08/07 03:18:50;;;;;;;;;;;;;;;22.10;83.36;153211.08;1683867;84;20475;-72
2022/08/07 03:21:18;;;;;;;;;;;;;;;22.16;83.44;153225.47;1693871;83;20202;-71
2022/08/07 03:23:44;;;;;;;;;;;;;;;22.21;83.57;153238.53;1693989;84;20209;-72
2022/08/07 03:26:13;;;;;;;;;;;;;;;22.27;83.34;153254.27;1694140;84;21193;-72
2022/08/07 03:28:40;;;;;;;;;;;;;;;22.32;83.09;153266.00;1697474;83;20317;-72
2022/08/07 03:31:19;;;;;;;;;;;;;;;22.37;82.91;153279.12;1694291;83;20536;-72
2022/08/07 03:33:49;;;;;;;;;;;;;;;22.44;82.32;153296.14;1694036;84;20198;-72
2022/08/07 03:36:17;;;;;;;;;;;;;;;22.50;81.78;153311.88;1693758;84;20225;-72
2022/08/07 03:38:44;;;;;;;;;;;;;;;22.54;81.47;153322.31;1694015;84;21250;-72
2022/08/07 03:41:11;;;;;;;;;;;;;;;22.56;81.38;153327.55;1674376;84;20126;-72
2022/08/07 03:43:38;;;;;;;;;;;;;;;22.61;81.30;153340.63;1693943;84;20139;-72
2022/08/07 03:46:08;;;;;;;;;;;;;;;22.68;80.95;153357.63;1697409;83;20447;-72
2022/08/07 03:48:35;;;;;;;;;;;;;;;22.76;80.80;153377.27;1693903;83;20198;-73
2022/08/07 03:51:03;;;;;;;;;;;;;;;22.82;80.36;153392.95;1696668;83;20459;-72
2022/08/07 03:53:32;;;;;;;;;;;;;;;22.86;80.19;153403.41;1694091;83;20169;-71
2022/08/07 03:55:58;;;;;;;;;;;;;;;22.90;79.80;153412.59;1693921;83;20462;-71
2022/08/07 03:58:25;;;;;;;;;;;;;;;22.95;79.77;153424.38;1694019;84;20209;-72
2022/08/07 04:00:52;;;;;;;;;;;;;;;22.99;79.69;153434.83;1693813;83;20178;-72
2022/08/07 04:03:19;;;;;;;;;;;;;;;23.05;79.43;153450.52;1693803;83;22156;-72
2022/08/07 04:05:45;;;;;;;;;;;;;;;23.12;79.03;153467.53;1707911;83;20194;-72
2022/08/07 04:08:17;;;;;;;;;;;;;;;23.16;78.67;153479.33;1718491;82;20163;-73
2022/08/07 04:10:44;;;;;;;;;;;;;;;23.25;78.45;153500.25;1721461;82;20091;-72
2022/08/07 04:13:12;;;;;;;;;;;;;;;23.36;78.50;153529.11;1738697;82;20427;-73
2022/08/07 04:15:39;;;;;;;;;;;;;;;23.51;77.98;153567.06;1738378;82;21296;-72
2022/08/07 04:18:05;;;;;;;;;;;;;;;23.59;77.38;153586.70;1727431;82;20190;-72
2022/08/07 04:20:33;;;;;;;;;;;;;;;23.67;77.14;153607.62;1694028;84;20169;-73
2022/08/07 04:23:00;;;;;;;;;;;;;;;23.77;76.86;153631.22;1694256;83;20206;-72
2022/08/07 04:25:27;;;;;;;;;;;;;;;23.83;76.75;153646.91;1693943;84;20178;-72
2022/08/07 04:27:53;;;;;;;;;;;;;;;23.92;76.68;153670.45;1693969;83;21148;-72
2022/08/07 04:30:20;;;;;;;;;;;;;;;24.05;75.97;153703.23;1693548;84;20636;-73
2022/08/07 04:32:54;;;;;;;;;;;;;;;24.12;75.11;153720.25;1693446;84;20270;-73
2022/08/07 04:35:21;;;;;;;;;;;;;;;24.16;75.04;153732.06;1693727;83;20297;-72
2022/08/07 04:37:49;;;;;;;;;;;;;;;24.25;74.75;153754.33;1693953;83;20178;-72
2022/08/07 04:40:16;;;;;;;;;;;;;;;24.32;73.74;153772.64;1693846;84;21257;-72
2022/08/07 04:42:44;;;;;;;;;;;;;;;24.40;73.18;153790.95;1694321;83;20098;-73
2022/08/07 04:45:12;;;;;;;;;;;;;;;24.47;73.29;153809.33;1694104;83;20469;-72
2022/08/07 04:48:01;;;;;;;;;;;;;;;24.56;72.65;153832.87;1693808;83;20178;-73
2022/08/07 04:50:40;;;;;;;;;;;;;;;24.64;72.23;153851.19;1692395;84;20197;-73
2022/08/07 04:53:23;;;;;;;;;;;;;;;24.74;71.90;153877.42;1693275;83;21155;-72
2022/08/07 04:55:53;;;;;;;;;;;;;;;24.86;71.04;153908.88;1686879;84;21431;-73
2022/08/07 04:58:26;;;;;;;;;;;;;;;24.88;70.74;153914.16;1693140;84;20137;-73
2022/08/07 05:01:02;;;;;;;;;;;;;;;24.87;71.04;153911.53;1693853;83;20178;-73
2022/08/07 05:03:33;;;;;;;;;;;;;;;24.96;70.90;153932.48;1693909;84;20186;-72
2022/08/07 05:06:06;;;;;;;;;;;;;;;25.06;70.46;153958.66;1710427;83;21104;-72
2022/08/07 05:08:59;;;;;;;;;;;;;;;25.15;69.63;153982.27;1718756;83;20224;-72
2022/08/07 05:11:32;;;;;;;;;;;;;;;25.26;69.48;154008.45;1727228;82;20175;-72
2022/08/07 05:14:02;;;;;;;;;;;;;;;25.38;68.27;154039.91;1737705;82;20484;-72
2022/08/07 05:16:30;;;;;;;;;;;;;;;25.51;67.18;154071.37;1738465;82;20183;-72
2022/08/07 05:18:59;;;;;;;;;;;;;;;25.62;66.46;154098.91;1711993;82;21235;-72
2022/08/07 05:21:26;;;;;;;;;;;;;;;25.73;66.21;154129.05;1693788;83;20459;-72
2022/08/07 05:24:02;;;;;;;;;;;;;;;25.88;65.19;154165.75;1694269;83;20130;-72
2022/08/07 05:26:31;;;;;;;;;;;;;;;26.03;65.30;154205.09;1693900;83;20215;-71
2022/08/07 05:29:01;;;;;;;;;;;;;;;26.29;64.58;154270.67;1694367;84;20447;-73
2022/08/07 05:31:32;;;;;;;;;;;;;;;26.53;63.50;154329.69;1693894;84;21241;-72
2022/08/07 05:34:00;;;;;;;;;;;;;;;26.76;62.43;154387.39;1693716;84;20226;-73
2022/08/07 05:36:27;;;;;;;;;;;;;;;26.90;60.87;154424.13;1694117;83;20471;-73
2022/08/07 05:38:54;;;;;;;;;;;;;;;26.97;59.95;154441.19;1693849;83;20162;-73
2022/08/07 05:41:21;;;;;;;;;;;;;;;27.01;59.33;154451.66;1693641;83;20213;-74
2022/08/07 05:43:51;;;;;;;;;;;;;;;27.01;59.22;154451.66;1694273;84;21133;-60
2022/08/07 05:46:21;;;;;;;;;;;;;;;27.06;59.16;154464.77;1694022;84;20182;-60
2022/08/07 05:48:49;;;;;;;;;;;;;;;27.20;59.22;154500.22;1693956;84;20448;-60
2022/08/07 05:51:15;;;;;;;;;;;;;;;27.36;58.65;154539.53;1693938;84;20843;-59
2022/08/07 05:53:42;;;;;;;;;;;;;;;27.45;58.08;154563.17;1693848;83;20186;-58
2022/08/07 05:56:09;;;;;;;;;;;;;;;27.51;57.83;154577.56;1694317;84;21140;-60
2022/08/07 05:58:37;;;;;;;;;;;;;;;27.60;57.76;154602.55;1693665;83;20154;-59
2022/08/07 06:01:06;;;;;;;;;;;;;;;27.77;57.25;154644.55;1694282;83;20165;-60
2022/08/07 06:03:34;;;;;;;;;;;;;;;27.93;56.71;154685.20;1694032;83;20210;-76
2022/08/07 06:06:01;;;;;;;;;;;;;;;28.15;55.88;154740.31;1710482;83;20206;-76
2022/08/07 06:08:27;;;;;;;;;;;;;;;28.31;55.46;154782.37;1718510;83;21225;-76
2022/08/07 06:10:54;;;;;;;;;;;;;;;28.49;54.85;154827.00;1718894;83;20542;-75
2022/08/07 06:13:21;;;;;;;;;;;;;;;28.63;54.24;154862.44;1718735;83;20216;-75
2022/08/07 06:15:48;;;;;;;;;;;;;;;28.80;53.93;154905.80;1718776;83;20394;-60
2022/08/07 06:18:17;;;;;;;;;;;;;;;28.96;53.47;154946.53;1728665;82;20198;-59
2022/08/07 06:20:44;;;;;;;;;;;;;;;29.12;53.00;154987.22;1749148;82;21714;-73
2022/08/07 06:23:11;;;;;;;;;;;;;;;29.26;52.52;155021.33;1749280;82;20338;-74
2022/08/07 06:25:40;;;;;;;;;;;;;;;29.41;52.14;155060.78;1749063;82;20206;-74
2022/08/07 06:28:08;;;;;;;;;;;;;;;29.56;51.72;155097.58;1738907;82;20479;-75
2022/08/07 06:30:35;;;;;;;;;;;;;;;29.64;51.29;155118.56;1739242;82;20198;-76
2022/08/07 06:33:02;;;;;;;;;;;;;;;29.73;50.78;155140.91;1739046;82;21249;-76
2022/08/07 06:35:29;;;;;;;;;;;;;;;29.84;50.08;155168.48;1738811;82;20195;-76
2022/08/07 06:37:57;;;;;;;;;;;;;;;30.03;49.82;155215.83;1739040;82;20535;-59
2022/08/07 06:40:24;;;;;;;;;;;;;;;30.21;49.27;155263.13;1738791;82;20202;-75
2022/08/07 06:42:51;;;;;;;;;;;;;;;30.38;48.50;155305.14;1739131;82;20167;-60
2022/08/07 06:45:23;;;;;;;;;;;;;;;30.44;47.99;155320.94;1738887;82;21255;-75
2022/08/07 06:47:51;;;;;;;;;;;;;;;30.49;47.46;155332.72;1739198;82;20155;-75
2022/08/07 06:50:18;;;;;;;;;;;;;;;30.58;47.60;155357.69;1739114;82;20187;-75
2022/08/07 06:52:47;;;;;;;;;;;;;;;30.72;46.94;155391.94;1739080;82;21377;-73
2022/08/07 06:55:17;;;;;;;;;;;;;;;30.86;46.57;155427.41;1738882;82;20175;-58
2022/08/07 06:57:44;;;;;;;;;;;;;;;30.90;45.81;155437.91;1742623;82;21246;-58
2022/08/07 07:00:11;;;;;;;;;;;;;;;30.92;46.01;155441.88;1739234;82;20146;-73
2022/08/07 07:02:39;;;;;;;;;;;;;;;30.96;45.02;155452.38;1739097;82;20825;-59
2022/08/07 07:05:06;;;;;;;;;;;;;;;30.92;44.46;155441.88;1739295;82;20864;-74
2022/08/07 07:07:33;;;;;;;;;;;;;;;30.90;44.80;155437.91;1739245;82;20419;-74
2022/08/07 07:10:00;;;;;;;;;;;;;;;31.00;44.96;155462.88;1739147;82;21127;-75
2022/08/07 07:12:42;;;;;;;;;;;;;;;31.14;44.94;155499.69;1702905;82;20895;-75
2022/08/07 07:15:12;;;;;;;;;;;;;;;31.30;44.41;155539.19;1694247;84;20217;-74
2022/08/07 07:17:51;;;;;;;;;;;;;;;31.40;43.91;155565.47;1697327;82;20133;-74
2022/08/07 07:20:19;;;;;;;;;;;;;;;31.46;42.81;155578.59;1748734;81;20290;-74
2022/08/07 07:22:46;;;;;;;;;;;;;;;31.55;42.99;155602.28;1741399;82;21825;-74
2022/08/07 07:25:13;;;;;;;;;;;;;;;31.71;42.28;155644.31;1739148;82;20139;-75
2022/08/07 07:28:00;;;;;;;;;;;;;;;31.82;41.48;155670.69;1739225;82;20217;-60
2022/08/07 07:30:30;;;;;;;;;;;;;;;31.91;40.89;155694.34;1739016;82;20166;-59
2022/08/07 07:32:57;;;;;;;;;;;;;;;32.00;41.10;155716.69;1739194;82;20242;-59
2022/08/07 07:35:23;;;;;;;;;;;;;;;32.13;41.21;155750.91;1739317;82;21277;-59
2022/08/07 07:37:50;;;;;;;;;;;;;;;32.25;41.14;155781.16;1739114;82;20424;-74
2022/08/07 07:40:19;;;;;;;;;;;;;;;32.40;40.51;155818.03;1739160;82;20170;-75
2022/08/07 07:42:47;;;;;;;;;;;;;;;32.47;40.32;155836.44;1739040;82;20491;-70
2022/08/07 07:45:14;;;;;;;;;;;;;;;32.61;39.92;155871.94;1739336;82;20171;-60
2022/08/07 07:47:41;;;;;;;;;;;;;;;32.73;38.47;155902.19;1738942;82;21077;-59
2022/08/07 07:50:09;;;;;;;;;;;;;;;32.84;36.85;155931.16;1739251;82;20119;-74
2022/08/07 07:52:37;;;;;;;;;;;;;;;32.99;36.74;155969.34;1739124;82;20228;-73
2022/08/07 07:55:04;;;;;;;;;;;;;;;33.14;36.70;156006.16;1738973;82;20391;-58
2022/08/07 07:57:31;;;;;;;;;;;;;;;33.25;36.98;156033.78;1734564;82;20475;-59
2022/08/07 07:59:58;;;;;;;;;;;;;;;33.34;36.63;156056.16;1734497;82;21217;-59
2022/08/07 08:02:26;;;;;;;;;;;;;;;33.43;36.15;156081.20;1739383;82;20122;-59
2022/08/07 08:04:53;;;;;;;;;;;;;;;33.53;35.64;156104.92;1731113;82;20145;-59
2022/08/07 08:07:19;;;;;;;;;;;;;;;33.46;35.33;156086.47;1721405;83;20608;-60
2022/08/07 08:09:49;;;;;;;;;;;;;;;33.42;34.96;156077.23;1721840;83;20132;-59
2022/08/07 08:12:15;;;;;;;;;;;;;;;33.48;35.46;156091.72;1714114;83;21185;-59
2022/08/07 08:14:42;;;;;;;;;;;;;;;33.57;34.39;156115.44;1711340;84;20254;-59
2022/08/07 08:17:11;;;;;;;;;;;;;;;33.58;34.15;156119.36;1711688;83;32360;-59
2022/08/07 08:19:38;;;;;;;;;;;;;;;33.57;32.71;156116.72;1740621;82;20427;-69
2022/08/07 08:27:36;;;;;;;;;;;;;;;33.75;34.22;156160.19;1734529;82;20175;-70
2022/08/07 08:30:06;;;;;;;;;;;;;;;33.79;34.52;156170.72;1734530;82;20207;-69
2022/08/07 08:32:36;;;;;;;;;;;;;;;33.72;35.47;156153.59;1734741;82;20123;-69
2022/08/07 08:35:06;;;;;;;;;;;;;;;33.63;35.41;156131.22;1735079;82;20143;-61
2022/08/07 08:37:34;;;;;;;;;;;;;;;33.54;35.39;156107.55;1734904;82;21089;-69
2022/08/07 08:40:01;;;;;;;;;;;;;;;33.45;35.70;156083.84;1734858;82;20159;-70
2022/08/07 08:42:38;;;;;;;;;;;;;;;33.37;36.04;156065.38;1734005;82;20431;-69
2022/08/07 08:45:17;;;;;;;;;;;;;;;33.37;36.50;156065.38;1733819;82;20182;-69
2022/08/07 08:47:57;;;;;;;;;;;;;;;33.32;37.21;156052.23;1733873;82;20244;-69
2022/08/07 08:50:36;;;;;;;;;;;;;;;33.24;37.38;156032.50;1726813;82;21142;-70
2022/08/07 08:53:25;;;;;;;;;;;;;;;33.24;37.93;156031.16;1734368;82;20209;-70
2022/08/07 08:56:07;;;;;;;;;;;;;;;33.20;38.33;156020.63;1734582;82;20136;-70
2022/08/07 08:58:46;;;;;;;;;;;;;;;33.27;38.21;156040.38;1734548;82;20171;-70
2022/08/07 09:01:36;;;;;;;;;;;;;;;33.33;36.68;156054.86;1734284;82;20496;-71
2022/08/07 09:04:10;;;;;;;;;;;;;;;33.33;36.61;156053.53;1734512;82;21139;-70
2022/08/07 09:06:39;;;;;;;;;;;;;;;33.35;36.14;156060.13;1720470;82;20188;-70
2022/08/07 09:09:19;;;;;;;;;;;;;;;33.35;35.78;156058.78;1721785;83;20489;-71
2022/08/07 09:11:51;;;;;;;;;;;;;;;33.26;36.63;156036.41;1700982;83;20202;-70
2022/08/07 09:14:31;;;;;;;;;;;;;;;33.19;37.63;156019.34;1711468;82;20454;-70
2022/08/07 09:17:07;;;;;;;;;;;;;;;33.25;37.64;156035.12;1711334;83;21208;-71
2022/08/07 09:19:47;;;;;;;;;;;;;;;33.25;37.53;156033.78;1706588;82;20181;-71
2022/08/07 09:22:29;;;;;;;;;;;;;;;33.31;37.47;156049.61;1705489;84;20466;-71
2022/08/07 09:25:03;;;;;;;;;;;;;;;33.34;36.68;156057.50;1705968;83;20197;-70
2022/08/07 09:27:45;;;;;;;;;;;;;;;33.38;35.81;156068.02;1705818;83;20442;-70
2022/08/07 09:30:12;;;;;;;;;;;;;;;33.36;36.38;156062.75;1706021;83;21144;-69
2022/08/07 09:33:16;;;;;;;;;;;;;;;33.36;36.15;156062.75;1705656;84;20562;-71
2022/08/07 09:35:53;;;;;;;;;;;;;;;33.39;35.56;156070.64;1705900;83;20174;-70
2022/08/07 09:38:31;;;;;;;;;;;;;;;33.40;35.07;156071.98;1705839;83;20483;-60
2022/08/07 09:41:14;;;;;;;;;;;;;;;33.40;34.97;156073.27;1705956;83;20188;-59
2022/08/07 09:44:03;;;;;;;;;;;;;;;33.42;34.83;156077.23;1705898;84;21237;-60
2022/08/07 09:46:45;;;;;;;;;;;;;;;33.44;35.29;156082.55;1705880;83;20180;-62
2022/08/07 09:49:32;;;;;;;;;;;;;;;33.60;35.60;156121.98;1706313;83;20117;-61
2022/08/07 09:52:02;;;;;;;;;;;;;;;33.89;35.49;156195.72;1705893;83;20389;-60
2022/08/07 09:54:40;;;;;;;;;;;;;;;34.12;35.04;156254.97;1705876;84;20178;-61
2022/08/07 09:57:38;;;;;;;;;;;;;;;34.21;34.91;156278.69;1699839;84;21209;-61
2022/08/07 10:00:10;;;;;;;;;;;;;;;34.22;35.03;156281.33;1696127;84;20138;-61
2022/08/07 10:02:58;;;;;;;;;;;;;;;34.21;35.12;156278.69;1697631;83;20485;-61
2022/08/07 10:05:38;;;;;;;;;;;;;;;34.19;35.07;156273.44;1689480;84;20916;-61
2022/08/07 10:08:09;;;;;;;;;;;;;;;34.25;35.01;156287.88;1677370;85;20200;-60
2022/08/07 10:10:57;;;;;;;;;;;;;;;34.19;35.06;156273.44;1646049;84;21148;-61
2022/08/07 10:13:43;;;;;;;;;;;;;;;34.16;35.07;156265.55;1697514;84;20153;-60
2022/08/07 10:16:25;;;;;;;;;;;;;;;34.16;35.57;156265.55;1698166;83;20218;-61
2022/08/07 10:19:20;;;;;;;;;;;;;;;34.24;35.16;156285.25;1705319;84;20146;-60
2022/08/07 10:22:22;;;;;;;;;;;;;;;34.27;33.61;156294.47;1703594;83;20597;-60
2022/08/07 10:25:10;;;;;;;;;;;;;;;34.16;32.96;156264.20;1701076;84;21277;-61
2022/08/07 10:27:58;;;;;;;;;;;;;;;34.01;33.01;156227.33;1701084;83;20454;-60
2022/08/07 10:30:28;;;;;;;;;;;;;;;34.06;32.79;156239.19;1700645;84;21001;-61
2022/08/07 10:33:23;;;;;;;;;;;;;;;34.03;31.60;156231.30;1684224;83;20147;-61
2022/08/07 10:35:56;;;;;;;;;;;;;;;33.93;31.69;156207.53;1679121;83;20404;-60
2022/08/07 10:38:41;;;;;;;;;;;;;;;33.90;31.51;156198.34;1683948;85;21146;-60
2022/08/07 10:41:15;;;;;;;;;;;;;;;33.89;32.04;156197.00;1683927;85;20176;-61
2022/08/07 10:43:45;;;;;;;;;;;;;;;33.92;31.50;156204.91;1677116;85;20204;-62
2022/08/07 10:46:14;;;;;;;;;;;;;;;33.97;31.27;156218.16;1673725;85;20204;-60
2022/08/07 10:48:47;;;;;;;;;;;;;;;33.85;31.33;156186.50;1673876;84;20208;-62
2022/08/07 10:51:37;;;;;;;;;;;;;;;33.68;31.53;156144.37;1673899;84;21211;-59
2022/08/07 10:54:14;;;;;;;;;;;;;;;33.53;32.06;156104.92;1674442;85;20208;-70
2022/08/07 10:57:02;;;;;;;;;;;;;;;33.46;32.35;156086.47;1670959;83;20203;-60
2022/08/07 11:00:02;;;;;;;;;;;;;;;33.55;32.56;156110.19;1716604;83;20224;-60
2022/08/07 11:02:45;;;;;;;;;;;;;;;33.69;32.40;156147.00;1703557;84;20181;-60
2022/08/07 11:05:25;;;;;;;;;;;;;;;33.87;32.34;156191.75;1689854;84;21136;-60
2022/08/07 11:08:17;;;;;;;;;;;;;;;34.06;31.65;156239.19;1658198;86;20418;-60
2022/08/07 11:10:51;;;;;;;;;;;;;;;34.12;31.27;156254.97;1658178;86;20233;-61
2022/08/07 11:13:46;;;;;;;;;;;;;;;34.15;31.43;156262.86;1658206;85;20466;-61
2022/08/07 11:16:35;;;;;;;;;;;;;;;34.20;31.53;156274.72;1677578;85;20449;-61
2022/08/07 11:19:08;;;;;;;;;;;;;;;34.27;31.65;156294.47;1685222;85;21949;-61
2022/08/07 11:21:41;;;;;;;;;;;;;;;34.33;31.65;156307.63;1689500;84;20300;-61
2022/08/07 11:24:23;;;;;;;;;;;;;;;34.36;30.82;156315.53;1689904;85;20224;-61
2022/08/07 11:26:56;;;;;;;;;;;;;;;34.37;30.38;156318.16;1689794;84;20169;-61
2022/08/07 11:29:39;;;;;;;;;;;;;;;34.25;30.32;156289.22;1689639;84;20253;-60
2022/08/07 11:32:24;;;;;;;;;;;;;;;34.09;30.99;156247.08;1689673;85;21134;-61
2022/08/07 11:34:58;;;;;;;;;;;;;;;33.99;30.97;156222.08;1689423;84;20145;-61
2022/08/07 11:37:35;;;;;;;;;;;;;;;34.02;30.49;156228.67;1690548;83;20169;-60
2022/08/07 11:40:08;;;;;;;;;;;;;;;34.06;29.85;156240.53;1689693;84;20242;-60
2022/08/07 11:42:51;;;;;;;;;;;;;;;34.11;29.86;156252.34;1690070;85;20425;-60
2022/08/07 11:45:38;;;;;;;;;;;;;;;34.20;29.51;156276.06;1689716;83;21239;-60
2022/08/07 11:48:25;;;;;;;;;;;;;;;34.40;29.10;156326.09;1690266;83;20435;-61
2022/08/07 11:51:14;;;;;;;;;;;;;;;34.50;28.06;156352.45;1689672;84;20146;-62
2022/08/07 11:53:50;;;;;;;;;;;;;;;34.65;28.66;156389.33;1689601;84;20201;-61
2022/08/07 11:56:37;;;;;;;;;;;;;;;34.74;27.82;156411.72;1690733;83;20177;-61
2022/08/07 11:59:24;;;;;;;;;;;;;;;34.66;28.23;156391.97;1689240;84;21103;-61
2022/08/07 12:02:03;;;;;;;;;;;;;;;34.54;28.56;156361.69;1689392;84;20173;-61
2022/08/07 12:04:58;;;;;;;;;;;;;;;34.49;28.39;156349.81;1688434;85;20177;-61
2022/08/07 12:07:37;;;;;;;;;;;;;;;34.53;27.69;156360.34;1676832;85;20175;-71
2022/08/07 12:10:10;;;;;;;;;;;;;;;34.64;27.39;156387.98;1657457;85;20244;-72
2022/08/07 12:12:42;;;;;;;;;;;;;;;34.72;26.68;156407.75;1672257;85;21271;-61
2022/08/07 12:15:15;;;;;;;;;;;;;;;34.76;27.13;156416.98;1671780;85;20192;-61
2022/08/07 12:17:47;;;;;;;;;;;;;;;34.77;27.18;156420.91;1692793;84;20206;-62
2022/08/07 12:20:23;;;;;;;;;;;;;;;34.77;26.70;156420.91;1693131;83;20515;-61
2022/08/07 12:23:16;;;;;;;;;;;;;;;34.68;26.49;156397.22;1694347;83;20183;-61
2022/08/07 12:25:52;;;;;;;;;;;;;;;34.53;26.53;156360.34;1693691;84;21140;-60
2022/08/07 12:28:50;;;;;;;;;;;;;;;34.31;26.32;156303.70;1693923;84;20184;-61
2022/08/07 12:31:32;;;;;;;;;;;;;;;34.18;26.98;156270.81;1694185;84;20561;-60
2022/08/07 12:33:59;;;;;;;;;;;;;;;34.25;27.13;156287.88;1693765;84;20191;-61
2022/08/07 12:36:26;;;;;;;;;;;;;;;34.37;26.79;156318.16;1694123;84;20184;-61
2022/08/07 12:38:52;;;;;;;;;;;;;;;34.47;27.04;156343.17;1693951;83;21270;-61
2022/08/07 12:41:19;;;;;;;;;;;;;;;34.54;26.79;156362.97;1693856;83;20203;-61
2022/08/07 12:43:46;;;;;;;;;;;;;;;34.69;26.79;156401.14;1693838;84;20210;-60
2022/08/07 12:46:22;;;;;;;;;;;;;;;34.81;26.13;156431.42;1693795;84;20216;-62
2022/08/07 12:49:08;;;;;;;;;;;;;;;34.80;26.05;156427.50;1693844;84;20156;-60
2022/08/07 12:51:41;;;;;;;;;;;;;;;34.72;25.90;156407.75;1693393;84;21163;-60
2022/08/07 12:54:27;;;;;;;;;;;;;;;34.57;25.39;156369.58;1693061;84;20166;-60
2022/08/07 12:56:55;;;;;;;;;;;;;;;34.45;25.43;156339.25;1693045;84;20431;-60
2022/08/07 12:59:27;;;;;;;;;;;;;;;34.43;25.29;156333.98;1696395;84;20154;-62
2022/08/07 13:02:25;;;;;;;;;;;;;;;34.48;25.32;156345.80;1696007;84;20164;-61
2022/08/07 13:05:10;;;;;;;;;;;;;;;34.57;25.19;156369.58;1692862;83;21144;-61
2022/08/07 13:08:00;;;;;;;;;;;;;;;34.68;25.34;156398.52;1677033;85;20208;-62